»·PEaware :: AAL505 KPHX-KFAT

AAL505 :: KPHX-KFAT

FLIGHT INFORMATION

Flight Status: Arrived
Operator:
American Airlines
More flights by this operator :: More flights under this callsign
Pilot: Jeremy D. (22782)
Aircraft: BOEING 737-800
(B738)
More flights by this aircraft type
Origin: KPHX Phoenix Sky Harbor Intl
United States
Destination: KFAT Fresno Yosemite Intl
United States
More flights between these airports :: More routes between these airports
Route: +KEENS2 HRRBR CURIV J212 DECAS BOILE LANDO TTE ALTTA8
File this flight plan on PilotEdge
Remarks: RMK / SIMBRIEF
Altitude:
(Current/Filed)
34,000ft
Speed:
(Current/Filed)
446kts
Departed: 18-Jul-19 04:55 PM
Arrived: 18-Jul-19 06:12 PM
Distance/Time
Traveled:
428nm/1:17
Distance/Time
To Go:
Arrived

Flight Plot

Page will automatically refresh every two minutes.

Flight plan parsing failed; only flown route is shown


Map Options




Map Legend


Flown Route
Filed Route
Departure Airport
Arrival Airport
Navaid (VOR, NDB)
Fix

Horizontal Profiles

Position Reports

Time Latitude Longitude Heading Altitude Ground
Speed
18-Jul-19 16:35 33.437751 -111.993690 269 1141ft 0kts
18-Jul-19 16:36 33.437751 -111.993690 269 1141ft 0kts
18-Jul-19 16:37 33.437751 -111.993690 269 1141ft 0kts
18-Jul-19 16:38 33.437751 -111.993690 269 1141ft 0kts
18-Jul-19 16:39 33.437751 -111.993690 269 1141ft 0kts
18-Jul-19 16:40 33.437751 -111.993690 269 1141ft 0kts
18-Jul-19 16:41 33.437751 -111.993690 269 1141ft 0kts
18-Jul-19 16:42 33.437751 -111.993690 269 1141ft 0kts
18-Jul-19 16:43 33.437751 -111.993690 269 1141ft 0kts
18-Jul-19 16:44 33.437751 -111.993690 269 1141ft 0kts
18-Jul-19 16:45 33.437751 -111.993690 269 1141ft 0kts
18-Jul-19 16:46 33.437751 -111.993690 269 1141ft 0kts
18-Jul-19 16:47 33.437751 -111.993690 269 1141ft 0kts
18-Jul-19 16:48 33.437752 -111.993620 269 1142ft 2kts
18-Jul-19 16:49 33.437509 -111.993061 345 1142ft 2kts
18-Jul-19 16:50 33.437379 -111.993046 358 1141ft 0kts
18-Jul-19 16:51 33.437379 -111.993045 358 1141ft 0kts
18-Jul-19 16:53 33.437379 -111.993046 358 1141ft 0kts
18-Jul-19 16:54 33.439649 -111.992307 7 1141ft 2kts
18-Jul-19 16:55 33.440819 -111.994617 270 1141ft 53kts
18-Jul-19 16:56 33.438089 -112.042538 255 2372ft 178kts
18-Jul-19 16:57 33.417667 -112.108480 250 3750ft 252kts
18-Jul-19 16:58 33.395322 -112.193612 266 6443ft 275kts
18-Jul-19 16:59 33.403639 -112.285950 280 9229ft 287kts
18-Jul-19 17:00 33.418547 -112.385610 280 11104ft 326kts
18-Jul-19 17:01 33.434713 -112.495021 280 13547ft 339kts
18-Jul-19 17:02 33.450215 -112.608832 273 15914ft 350kts
18-Jul-19 17:03 33.451852 -112.725637 270 18100ft 361kts
18-Jul-19 17:04 33.461100 -112.846683 281 20164ft 372kts
18-Jul-19 17:05 33.484583 -112.969802 281 21986ft 386kts
18-Jul-19 17:06 33.507769 -113.094228 280 23605ft 399kts
18-Jul-19 17:07 33.532161 -113.225932 280 25283ft 409kts
18-Jul-19 17:08 33.556957 -113.360655 280 26828ft 418kts
18-Jul-19 17:09 33.582150 -113.498422 280 28249ft 427kts
18-Jul-19 17:09 33.603707 -113.615507 280 29357ft 434kts
18-Jul-19 17:11 33.634773 -113.782527 280 30840ft 442kts
18-Jul-19 17:12 33.661285 -113.926625 280 32348ft 439kts
18-Jul-19 17:12 33.683179 -114.046034 280 33519ft 436kts
18-Jul-19 17:13 33.709606 -114.191071 280 33817ft 451kts
18-Jul-19 17:15 33.740134 -114.359398 280 33818ft 450kts
18-Jul-19 17:16 33.766609 -114.506678 280 33817ft 450kts
18-Jul-19 17:16 33.778053 -114.625253 271 33818ft 447kts
18-Jul-19 17:17 33.786037 -114.766371 271 33818ft 447kts
18-Jul-19 17:18 33.794396 -114.912627 271 33818ft 447kts
18-Jul-19 17:19 33.802744 -115.061945 271 33818ft 447kts
18-Jul-19 17:20 33.810760 -115.208473 271 33818ft 447kts
18-Jul-19 17:21 33.818800 -115.358715 271 33792ft 447kts
18-Jul-19 17:22 33.834174 -115.500473 282 33774ft 452kts
18-Jul-19 17:23 33.868603 -115.640631 284 33772ft 452kts
18-Jul-19 17:24 33.897530 -115.759547 283 33773ft 452kts
18-Jul-19 17:25 33.930290 -115.894861 283 33780ft 452kts
18-Jul-19 17:26 33.967161 -116.048015 283 33824ft 452kts
18-Jul-19 17:27 34.000627 -116.187822 283 33863ft 452kts
18-Jul-19 17:28 34.027803 -116.301918 283 33867ft 452kts
18-Jul-19 17:29 34.062294 -116.447473 283 33838ft 452kts
18-Jul-19 17:30 34.095509 -116.588435 283 33840ft 452kts
18-Jul-19 17:31 34.123466 -116.707356 282 33858ft 451kts
18-Jul-19 17:32 34.158606 -116.858351 282 33938ft 451kts
18-Jul-19 17:33 34.192730 -117.005593 283 33961ft 457kts
18-Jul-19 17:34 34.226244 -117.151007 283 33962ft 462kts
18-Jul-19 17:35 34.258784 -117.293048 283 33964ft 461kts
18-Jul-19 17:36 34.291809 -117.438065 283 33978ft 461kts
18-Jul-19 17:37 34.325335 -117.586164 283 33993ft 460kts
18-Jul-19 17:38 34.357479 -117.728957 283 33997ft 459kts
18-Jul-19 17:39 34.386924 -117.860524 283 33998ft 460kts
18-Jul-19 17:40 34.415048 -117.990674 297 34017ft 461kts
18-Jul-19 17:41 34.500556 -118.099563 315 33982ft 466kts
18-Jul-19 17:42 34.598042 -118.200442 320 33982ft 467kts
18-Jul-19 17:43 34.693539 -118.295647 320 33983ft 467kts
18-Jul-19 17:44 34.793862 -118.396076 320 33993ft 467kts
18-Jul-19 17:45 34.890797 -118.493424 320 34049ft 466kts
18-Jul-19 17:46 34.990694 -118.592976 324 34053ft 460kts
18-Jul-19 17:47 35.100198 -118.655640 339 33144ft 454kts
18-Jul-19 17:48 35.175051 -118.688656 339 32516ft 457kts
18-Jul-19 17:49 35.314698 -118.750970 339 30545ft 452kts
18-Jul-19 17:50 35.432735 -118.803819 339 28436ft 453kts
18-Jul-19 17:51 35.552346 -118.857542 339 26201ft 460kts
18-Jul-19 17:52 35.672813 -118.911820 339 23296ft 460kts
18-Jul-19 17:53 35.780531 -118.960508 339 20600ft 427kts
18-Jul-19 17:54 35.887508 -119.009014 339 17981ft 392kts
18-Jul-19 17:55 35.975935 -119.050598 338 15575ft 373kts
18-Jul-19 17:56 36.069607 -119.095217 338 14025ft 347kts
18-Jul-19 17:57 36.144839 -119.131049 0 13668ft 0kts
18-Jul-19 17:58 36.224651 -119.169192 338 12078ft 310kts
18-Jul-19 17:59 36.300120 -119.205319 338 10172ft 303kts
18-Jul-19 18:00 36.367310 -119.243430 323 8388ft 293kts
18-Jul-19 18:01 36.431480 -119.300884 322 6423ft 276kts
18-Jul-19 18:02 36.490768 -119.354551 322 4424ft 258kts
18-Jul-19 18:03 36.544026 -119.403770 322 3004ft 216kts
18-Jul-19 18:04 36.588717 -119.445004 322 3014ft 198kts
18-Jul-19 18:05 36.633387 -119.485794 322 3013ft 200kts
18-Jul-19 18:06 36.671458 -119.533099 304 2615ft 187kts
18-Jul-19 18:07 36.700965 -119.584652 304 2173ft 160kts
18-Jul-19 18:08 36.725369 -119.628736 303 1545ft 150kts
18-Jul-19 18:09 36.748985 -119.668691 303 1000ft 152kts
18-Jul-19 18:10 36.771999 -119.709117 303 344ft 141kts
18-Jul-19 18:11 36.779519 -119.724219 218 342ft 13kts
18-Jul-19 18:12 36.776743 -119.723874 126 342ft 13kts
18-Jul-19 18:13 36.774495 -119.720209 148 341ft 15kts
18-Jul-19 18:14 36.772276 -119.718261 189 341ft 0kts
18-Jul-19 18:15 36.772276 -119.718261 189 341ft 0kts

Navigation Log

Ident Type
Flight plan parsing failed, navigation log unavailable